sensor_id;sensor_type;location;lat;lon;timestamp;pressure;altitude;pressure_sealevel;temperature;humidity
69306;BME280;56427;51.580;4.656;2022-07-06T00:02:16;102620.75;;;12.01;96.67
69306;BME280;56427;51.580;4.656;2022-07-06T00:04:41;102625.00;;;11.88;97.23
69306;BME280;56427;51.580;4.656;2022-07-06T00:07:07;102616.16;;;11.90;96.97
69306;BME280;56427;51.580;4.656;2022-07-06T00:09:33;102620.94;;;11.98;96.91
69306;BME280;56427;51.580;4.656;2022-07-06T00:11:58;102623.81;;;12.08;96.69
69306;BME280;56427;51.580;4.656;2022-07-06T00:14:23;102609.59;;;12.13;96.55
69306;BME280;56427;51.580;4.656;2022-07-06T00:16:49;102620.31;;;12.09;95.67
69306;BME280;56427;51.580;4.656;2022-07-06T00:19:14;102614.91;;;11.98;95.65
69306;BME280;56427;51.580;4.656;2022-07-06T00:21:39;102616.34;;;11.87;96.41
69306;BME280;56427;51.580;4.656;2022-07-06T00:24:05;102612.06;;;11.72;97.76
69306;BME280;56427;51.580;4.656;2022-07-06T00:26:30;102610.13;;;11.75;97.78
69306;BME280;56427;51.580;4.656;2022-07-06T00:28:55;102610.84;;;11.77;98.29
69306;BME280;56427;51.580;4.656;2022-07-06T00:31:21;102619.59;;;11.76;97.46
69306;BME280;56427;51.580;4.656;2022-07-06T00:33:46;102624.81;;;11.91;97.14
69306;BME280;56427;51.580;4.656;2022-07-06T00:36:11;102620.63;;;11.88;96.44
69306;BME280;56427;51.580;4.656;2022-07-06T00:38:37;102613.56;;;11.90;96.62
69306;BME280;56427;51.580;4.656;2022-07-06T00:41:02;102616.34;;;11.87;96.82
69306;BME280;56427;51.580;4.656;2022-07-06T00:43:28;102617.28;;;11.86;96.68
69306;BME280;56427;51.580;4.656;2022-07-06T00:45:53;102611.81;;;11.76;96.97
69306;BME280;56427;51.580;4.656;2022-07-06T00:48:19;102613.84;;;11.71;97.38
69306;BME280;56427;51.580;4.656;2022-07-06T00:50:45;102604.28;;;11.72;98.06
69306;BME280;56427;51.580;4.656;2022-07-06T00:53:10;102611.25;;;11.71;98.24
69306;BME280;56427;51.580;4.656;2022-07-06T00:55:39;102606.88;;;11.72;97.72
69306;BME280;56427;51.580;4.656;2022-07-06T00:58:05;102613.56;;;11.76;97.94
69306;BME280;56427;51.580;4.656;2022-07-06T01:00:31;102615.16;;;11.78;97.65
69306;BME280;56427;51.580;4.656;2022-07-06T01:02:57;102619.38;;;11.51;98.73
69306;BME280;56427;51.580;4.656;2022-07-06T01:05:22;102620.13;;;11.53;99.03
69306;BME280;56427;51.580;4.656;2022-07-06T01:07:49;102611.44;;;11.38;98.73
69306;BME280;56427;51.580;4.656;2022-07-06T01:10:17;102611.84;;;11.32;98.72
69306;BME280;56427;51.580;4.656;2022-07-06T01:12:44;102620.03;;;11.40;99.37
69306;BME280;56427;51.580;4.656;2022-07-06T01:15:23;102620.44;;;11.32;99.50
69306;BME280;56427;51.580;4.656;2022-07-06T01:17:49;102617.78;;;11.34;99.23
69306;BME280;56427;51.580;4.656;2022-07-06T01:20:18;102613.09;;;11.24;99.23
69306;BME280;56427;51.580;4.656;2022-07-06T01:22:46;102622.56;;;11.26;98.96
69306;BME280;56427;51.580;4.656;2022-07-06T01:25:12;102615.69;;;11.24;99.33
69306;BME280;56427;51.580;4.656;2022-07-06T01:27:39;102622.41;;;11.29;99.35
69306;BME280;56427;51.580;4.656;2022-07-06T01:30:06;102622.19;;;11.17;99.30
69306;BME280;56427;51.580;4.656;2022-07-06T01:32:32;102621.47;;;10.99;99.87
69306;BME280;56427;51.580;4.656;2022-07-06T01:34:57;102618.13;;;10.97;100.00
69306;BME280;56427;51.580;4.656;2022-07-06T01:37:23;102611.94;;;10.84;100.00
69306;BME280;56427;51.580;4.656;2022-07-06T01:39:48;102617.22;;;10.82;100.00
69306;BME280;56427;51.580;4.656;2022-07-06T01:42:13;102621.50;;;10.67;100.00
69306;BME280;56427;51.580;4.656;2022-07-06T01:44:38;102619.06;;;10.64;100.00
69306;BME280;56427;51.580;4.656;2022-07-06T01:47:04;102611.59;;;10.58;100.00
69306;BME280;56427;51.580;4.656;2022-07-06T01:49:29;102606.75;;;10.68;100.00
69306;BME280;56427;51.580;4.656;2022-07-06T01:51:54;102606.34;;;10.76;100.00
69306;BME280;56427;51.580;4.656;2022-07-06T01:54:20;102602.22;;;10.88;100.00
69306;BME280;56427;51.580;4.656;2022-07-06T01:56:45;102607.50;;;10.86;100.00
69306;BME280;56427;51.580;4.656;2022-07-06T01:59:10;102611.94;;;10.68;100.00
69306;BME280;56427;51.580;4.656;2022-07-06T02:01:36;102612.09;;;10.65;100.00
69306;BME280;56427;51.580;4.656;2022-07-06T02:04:01;102605.25;;;10.48;100.00
69306;BME280;56427;51.580;4.656;2022-07-06T02:06:26;102617.63;;;10.59;100.00
69306;BME280;56427;51.580;4.656;2022-07-06T02:08:51;102617.44;;;10.46;100.00
69306;BME280;56427;51.580;4.656;2022-07-06T02:11:19;102613.84;;;10.32;100.00
69306;BME280;56427;51.580;4.656;2022-07-06T02:13:44;102625.25;;;10.46;100.00
69306;BME280;56427;51.580;4.656;2022-07-06T02:16:10;102617.28;;;10.49;100.00
69306;BME280;56427;51.580;4.656;2022-07-06T02:18:35;102617.09;;;10.20;100.00
69306;BME280;56427;51.580;4.656;2022-07-06T02:21:02;102612.94;;;10.34;100.00
69306;BME280;56427;51.580;4.656;2022-07-06T02:23:28;102609.94;;;10.08;100.00
69306;BME280;56427;51.580;4.656;2022-07-06T02:25:53;102609.47;;;9.84;100.00
69306;BME280;56427;51.580;4.656;2022-07-06T02:28:18;102613.41;;;9.91;100.00
69306;BME280;56427;51.580;4.656;2022-07-06T02:30:44;102610.47;;;9.81;100.00
69306;BME280;56427;51.580;4.656;2022-07-06T02:33:09;102601.88;;;9.63;100.00
69306;BME280;56427;51.580;4.656;2022-07-06T02:35:34;102598.22;;;9.50;100.00
69306;BME280;56427;51.580;4.656;2022-07-06T02:38:00;102599.81;;;9.35;100.00
69306;BME280;56427;51.580;4.656;2022-07-06T02:40:25;102606.94;;;9.31;100.00
69306;BME280;56427;51.580;4.656;2022-07-06T02:42:50;102604.47;;;9.28;100.00
69306;BME280;56427;51.580;4.656;2022-07-06T02:45:16;102611.56;;;9.25;100.00
69306;BME280;56427;51.580;4.656;2022-07-06T02:47:41;102611.25;;;9.31;100.00
69306;BME280;56427;51.580;4.656;2022-07-06T02:50:06;102619.72;;;9.34;100.00
69306;BME280;56427;51.580;4.656;2022-07-06T02:52:32;102620.94;;;9.45;100.00
69306;BME280;56427;51.580;4.656;2022-07-06T02:54:57;102615.31;;;9.54;100.00
69306;BME280;56427;51.580;4.656;2022-07-06T02:57:22;102614.53;;;9.69;100.00
69306;BME280;56427;51.580;4.656;2022-07-06T02:59:48;102617.75;;;9.39;100.00
69306;BME280;56427;51.580;4.656;2022-07-06T03:02:15;102614.22;;;9.40;100.00
69306;BME280;56427;51.580;4.656;2022-07-06T03:04:41;102611.56;;;9.42;100.00
69306;BME280;56427;51.580;4.656;2022-07-06T03:07:07;102609.03;;;9.40;100.00
69306;BME280;56427;51.580;4.656;2022-07-06T03:09:32;102613.00;;;9.30;100.00
69306;BME280;56427;51.580;4.656;2022-07-06T03:11:57;102614.69;;;9.31;100.00
69306;BME280;56427;51.580;4.656;2022-07-06T03:14:23;102622.19;;;9.37;100.00
69306;BME280;56427;51.580;4.656;2022-07-06T03:16:50;102614.91;;;9.27;100.00
69306;BME280;56427;51.580;4.656;2022-07-06T03:19:15;102622.94;;;9.39;100.00
69306;BME280;56427;51.580;4.656;2022-07-06T03:21:41;102623.06;;;9.36;100.00
69306;BME280;56427;51.580;4.656;2022-07-06T03:24:07;102610.44;;;9.48;100.00
69306;BME280;56427;51.580;4.656;2022-07-06T03:26:32;102607.09;;;9.46;100.00
69306;BME280;56427;51.580;4.656;2022-07-06T03:28:57;102609.81;;;9.43;100.00
69306;BME280;56427;51.580;4.656;2022-07-06T03:31:22;102609.97;;;9.39;100.00
69306;BME280;56427;51.580;4.656;2022-07-06T03:33:48;102608.66;;;9.66;100.00
69306;BME280;56427;51.580;4.656;2022-07-06T03:36:13;102619.47;;;9.39;100.00
69306;BME280;56427;51.580;4.656;2022-07-06T03:38:38;102615.97;;;9.23;100.00
69306;BME280;56427;51.580;4.656;2022-07-06T03:41:04;102616.59;;;9.28;100.00
69306;BME280;56427;51.580;4.656;2022-07-06T03:43:29;102620.88;;;9.46;100.00
69306;BME280;56427;51.580;4.656;2022-07-06T03:45:55;102617.78;;;9.55;100.00
69306;BME280;56427;51.580;4.656;2022-07-06T03:48:20;102620.53;;;9.70;100.00
69306;BME280;56427;51.580;4.656;2022-07-06T03:50:46;102618.16;;;9.83;100.00
69306;BME280;56427;51.580;4.656;2022-07-06T03:53:11;102615.78;;;9.95;100.00
69306;BME280;56427;51.580;4.656;2022-07-06T03:55:36;102615.19;;;10.06;100.00
69306;BME280;56427;51.580;4.656;2022-07-06T03:58:02;102621.31;;;10.39;100.00
69306;BME280;56427;51.580;4.656;2022-07-06T04:00:27;102615.66;;;10.30;100.00
69306;BME280;56427;51.580;4.656;2022-07-06T04:02:52;102618.16;;;10.49;100.00
69306;BME280;56427;51.580;4.656;2022-07-06T04:05:18;102606.03;;;10.17;100.00
69306;BME280;56427;51.580;4.656;2022-07-06T04:07:49;102607.16;;;9.95;100.00
69306;BME280;56427;51.580;4.656;2022-07-06T04:10:16;102601.63;;;10.01;100.00
69306;BME280;56427;51.580;4.656;2022-07-06T04:12:42;102598.75;;;10.23;100.00
69306;BME280;56427;51.580;4.656;2022-07-06T04:15:08;102598.03;;;10.37;100.00
69306;BME280;56427;51.580;4.656;2022-07-06T04:17:33;102602.97;;;10.42;100.00
69306;BME280;56427;51.580;4.656;2022-07-06T04:20:17;102595.78;;;11.54;100.00
69306;BME280;56427;51.580;4.656;2022-07-06T04:22:42;102602.22;;;13.16;93.84
69306;BME280;56427;51.580;4.656;2022-07-06T04:25:08;102599.50;;;14.70;85.35
69306;BME280;56427;51.580;4.656;2022-07-06T04:27:33;102601.69;;;15.81;77.68
69306;BME280;56427;51.580;4.656;2022-07-06T04:29:59;102598.94;;;16.06;75.01
69306;BME280;56427;51.580;4.656;2022-07-06T04:32:24;102596.69;;;16.01;75.30
69306;BME280;56427;51.580;4.656;2022-07-06T04:34:49;102598.66;;;15.63;77.56
69306;BME280;56427;51.580;4.656;2022-07-06T04:37:15;102600.34;;;16.10;75.45
69306;BME280;56427;51.580;4.656;2022-07-06T04:39:40;102607.13;;;16.12;74.90
69306;BME280;56427;51.580;4.656;2022-07-06T04:42:05;102604.00;;;16.85;72.78
69306;BME280;56427;51.580;4.656;2022-07-06T04:44:31;102603.69;;;17.20;70.14
69306;BME280;56427;51.580;4.656;2022-07-06T04:46:56;102609.56;;;18.16;68.64
69306;BME280;56427;51.580;4.656;2022-07-06T04:49:21;102611.03;;;18.69;66.97
69306;BME280;56427;51.580;4.656;2022-07-06T04:51:46;102608.00;;;19.60;63.66
69306;BME280;56427;51.580;4.656;2022-07-06T04:54:12;102603.41;;;20.00;62.00
69306;BME280;56427;51.580;4.656;2022-07-06T04:56:37;102608.34;;;19.85;62.33
69306;BME280;56427;51.580;4.656;2022-07-06T04:59:02;102614.44;;;20.13;61.17
69306;BME280;56427;51.580;4.656;2022-07-06T05:01:28;102614.00;;;17.85;68.99
69306;BME280;56427;51.580;4.656;2022-07-06T05:03:53;102622.25;;;18.91;65.83
69306;BME280;56427;51.580;4.656;2022-07-06T05:06:18;102623.19;;;18.41;68.17
69306;BME280;56427;51.580;4.656;2022-07-06T05:08:45;102619.53;;;17.61;73.81
69306;BME280;56427;51.580;4.656;2022-07-06T05:11:10;102623.78;;;19.03;65.42
69306;BME280;56427;51.580;4.656;2022-07-06T05:13:35;102624.19;;;19.08;65.28
69306;BME280;56427;51.580;4.656;2022-07-06T05:16:01;102615.91;;;19.50;64.03
69306;BME280;56427;51.580;4.656;2022-07-06T05:18:27;102623.94;;;19.02;66.47
69306;BME280;56427;51.580;4.656;2022-07-06T05:20:52;102625.13;;;18.68;67.98
69306;BME280;56427;51.580;4.656;2022-07-06T05:23:18;102623.78;;;19.03;67.70
69306;BME280;56427;51.580;4.656;2022-07-06T05:25:43;102626.41;;;19.03;67.54
69306;BME280;56427;51.580;4.656;2022-07-06T05:28:09;102624.09;;;17.59;74.58
69306;BME280;56427;51.580;4.656;2022-07-06T05:30:34;102629.53;;;17.67;74.03
69306;BME280;56427;51.580;4.656;2022-07-06T05:32:59;102631.78;;;17.51;71.29
69306;BME280;56427;51.580;4.656;2022-07-06T05:35:24;102631.72;;;17.41;71.86
69306;BME280;56427;51.580;4.656;2022-07-06T05:37:50;102636.34;;;17.27;71.77
69306;BME280;56427;51.580;4.656;2022-07-06T05:40:15;102632.75;;;16.64;74.19
69306;BME280;56427;51.580;4.656;2022-07-06T05:42:40;102632.16;;;17.46;71.00
69306;BME280;56427;51.580;4.656;2022-07-06T05:45:06;102624.84;;;18.42;68.40
69306;BME280;56427;51.580;4.656;2022-07-06T05:47:32;102627.25;;;19.04;65.54
69306;BME280;56427;51.580;4.656;2022-07-06T05:50:15;102627.94;;;18.86;64.32
69306;BME280;56427;51.580;4.656;2022-07-06T05:52:44;102630.94;;;19.30;62.17
69306;BME280;56427;51.580;4.656;2022-07-06T05:55:11;102634.09;;;19.44;61.43
69306;BME280;56427;51.580;4.656;2022-07-06T05:57:37;102633.41;;;19.42;61.97
69306;BME280;56427;51.580;4.656;2022-07-06T06:00:04;102630.69;;;19.14;62.08
69306;BME280;56427;51.580;4.656;2022-07-06T06:02:40;102633.06;;;19.64;61.01
69306;BME280;56427;51.580;4.656;2022-07-06T06:05:07;102633.31;;;19.24;61.68
69306;BME280;56427;51.580;4.656;2022-07-06T06:07:37;102628.97;;;19.42;61.54
69306;BME280;56427;51.580;4.656;2022-07-06T06:10:04;102625.00;;;19.85;60.48
69306;BME280;56427;51.580;4.656;2022-07-06T06:12:30;102631.50;;;19.72;60.10
69306;BME280;56427;51.580;4.656;2022-07-06T06:14:55;102626.63;;;19.49;61.04
69306;BME280;56427;51.580;4.656;2022-07-06T06:17:21;102634.09;;;19.91;59.35
69306;BME280;56427;51.580;4.656;2022-07-06T06:19:46;102625.66;;;19.88;58.68
69306;BME280;56427;51.580;4.656;2022-07-06T06:22:11;102633.59;;;19.01;61.14
69306;BME280;56427;51.580;4.656;2022-07-06T06:24:36;102634.03;;;19.16;59.89
69306;BME280;56427;51.580;4.656;2022-07-06T06:27:02;102631.28;;;18.88;60.82
69306;BME280;56427;51.580;4.656;2022-07-06T06:29:27;102625.28;;;19.82;59.67
69306;BME280;56427;51.580;4.656;2022-07-06T06:31:53;102626.97;;;20.01;57.50
69306;BME280;56427;51.580;4.656;2022-07-06T06:34:18;102624.34;;;20.47;56.47
69306;BME280;56427;51.580;4.656;2022-07-06T06:36:43;102632.97;;;20.67;55.68
69306;BME280;56427;51.580;4.656;2022-07-06T06:39:08;102640.38;;;19.33;58.16
69306;BME280;56427;51.580;4.656;2022-07-06T06:41:34;102637.53;;;20.01;57.65
69306;BME280;56427;51.580;4.656;2022-07-06T06:43:59;102640.16;;;19.64;59.61
69306;BME280;56427;51.580;4.656;2022-07-06T06:46:24;102641.75;;;20.40;56.65
69306;BME280;56427;51.580;4.656;2022-07-06T06:48:50;102650.19;;;19.88;60.07
69306;BME280;56427;51.580;4.656;2022-07-06T06:51:15;102646.41;;;20.28;59.20
69306;BME280;56427;51.580;4.656;2022-07-06T06:53:40;102643.00;;;21.00;57.13
69306;BME280;56427;51.580;4.656;2022-07-06T06:56:08;102649.56;;;21.13;53.14
69306;BME280;56427;51.580;4.656;2022-07-06T06:58:33;102646.22;;;20.39;55.20
69306;BME280;56427;51.580;4.656;2022-07-06T07:00:59;102645.91;;;21.59;52.71
69306;BME280;56427;51.580;4.656;2022-07-06T07:03:24;102644.56;;;20.11;54.79
69306;BME280;56427;51.580;4.656;2022-07-06T07:05:50;102644.75;;;19.99;54.74
69306;BME280;56427;51.580;4.656;2022-07-06T07:08:16;102648.28;;;21.00;53.18
69306;BME280;56427;51.580;4.656;2022-07-06T07:10:42;102647.03;;;21.56;52.31
69306;BME280;56427;51.580;4.656;2022-07-06T07:13:07;102647.38;;;21.09;50.76
69306;BME280;56427;51.580;4.656;2022-07-06T07:15:32;102651.22;;;20.15;52.92
69306;BME280;56427;51.580;4.656;2022-07-06T07:17:58;102654.41;;;19.81;53.13
69306;BME280;56427;51.580;4.656;2022-07-06T07:20:23;102652.47;;;20.38;53.41
69306;BME280;56427;51.580;4.656;2022-07-06T07:22:50;102649.63;;;21.04;51.58
69306;BME280;56427;51.580;4.656;2022-07-06T07:25:16;102654.47;;;21.35;51.13
69306;BME280;56427;51.580;4.656;2022-07-06T07:27:41;102639.66;;;20.62;52.47
69306;BME280;56427;51.580;4.656;2022-07-06T07:30:07;102644.69;;;21.27;51.91
69306;BME280;56427;51.580;4.656;2022-07-06T07:32:32;102641.16;;;20.46;54.40
69306;BME280;56427;51.580;4.656;2022-07-06T07:34:57;102641.50;;;22.10;49.25
69306;BME280;56427;51.580;4.656;2022-07-06T07:37:23;102647.22;;;21.10;51.65
69306;BME280;56427;51.580;4.656;2022-07-06T07:39:48;102637.59;;;21.27;51.33
69306;BME280;56427;51.580;4.656;2022-07-06T07:42:14;102639.53;;;21.69;49.47
69306;BME280;56427;51.580;4.656;2022-07-06T07:44:39;102641.16;;;21.18;51.47
69306;BME280;56427;51.580;4.656;2022-07-06T07:47:06;102641.47;;;21.67;49.30
69306;BME280;56427;51.580;4.656;2022-07-06T07:49:31;102643.91;;;22.38;48.50
69306;BME280;56427;51.580;4.656;2022-07-06T07:51:57;102638.81;;;21.41;49.18
69306;BME280;56427;51.580;4.656;2022-07-06T07:54:22;102635.72;;;23.07;46.72
69306;BME280;56427;51.580;4.656;2022-07-06T07:56:48;102642.47;;;23.98;42.83
69306;BME280;56427;51.580;4.656;2022-07-06T07:59:13;102633.38;;;22.03;46.65
69306;BME280;56427;51.580;4.656;2022-07-06T08:01:39;102641.16;;;21.44;45.73
69306;BME280;56427;51.580;4.656;2022-07-06T08:04:04;102629.19;;;20.52;47.39
69306;BME280;56427;51.580;4.656;2022-07-06T08:06:30;102636.91;;;20.99;47.80
69306;BME280;56427;51.580;4.656;2022-07-06T08:08:55;102631.06;;;22.00;45.38
69306;BME280;56427;51.580;4.656;2022-07-06T08:11:21;102640.06;;;21.81;45.65
69306;BME280;56427;51.580;4.656;2022-07-06T08:13:46;102634.19;;;20.91;47.50
69306;BME280;56427;51.580;4.656;2022-07-06T08:16:12;102641.47;;;21.67;45.33
69306;BME280;56427;51.580;4.656;2022-07-06T08:18:37;102641.25;;;22.30;44.13
69306;BME280;56427;51.580;4.656;2022-07-06T08:21:03;102638.22;;;22.16;45.28
69306;BME280;56427;51.580;4.656;2022-07-06T08:23:29;102633.72;;;22.68;41.38
69306;BME280;56427;51.580;4.656;2022-07-06T08:25:54;102624.16;;;22.08;44.33
69306;BME280;56427;51.580;4.656;2022-07-06T08:28:20;102629.44;;;22.75;42.98
69306;BME280;56427;51.580;4.656;2022-07-06T08:30:46;102628.88;;;22.47;41.77
69306;BME280;56427;51.580;4.656;2022-07-06T08:33:12;102634.09;;;21.45;42.37
69306;BME280;56427;51.580;4.656;2022-07-06T08:35:38;102629.88;;;21.34;43.73
69306;BME280;56427;51.580;4.656;2022-07-06T08:38:03;102626.63;;;23.18;40.60
69306;BME280;56427;51.580;4.656;2022-07-06T08:40:33;102627.53;;;21.83;42.69
69306;BME280;56427;51.580;4.656;2022-07-06T08:42:59;102624.44;;;22.55;42.00
69306;BME280;56427;51.580;4.656;2022-07-06T08:45:25;102620.97;;;23.12;43.56
69306;BME280;56427;51.580;4.656;2022-07-06T08:47:54;102618.31;;;23.29;41.68
69306;BME280;56427;51.580;4.656;2022-07-06T08:50:19;102614.41;;;22.16;40.31
69306;BME280;56427;51.580;4.656;2022-07-06T08:52:48;102610.69;;;21.50;43.36
69306;BME280;56427;51.580;4.656;2022-07-06T08:55:15;102603.78;;;21.92;43.82
69306;BME280;56427;51.580;4.656;2022-07-06T08:57:42;102607.63;;;21.63;44.52
69306;BME280;56427;51.580;4.656;2022-07-06T09:00:11;102613.94;;;21.44;42.77
69306;BME280;56427;51.580;4.656;2022-07-06T09:02:37;102611.78;;;20.77;44.43
69306;BME280;56427;51.580;4.656;2022-07-06T09:05:03;102615.47;;;21.02;44.79
69306;BME280;56427;51.580;4.656;2022-07-06T09:07:29;102611.06;;;21.55;43.78
69306;BME280;56427;51.580;4.656;2022-07-06T09:09:55;102610.09;;;22.15;41.63
69306;BME280;56427;51.580;4.656;2022-07-06T09:12:21;102615.88;;;21.60;43.80
69306;BME280;56427;51.580;4.656;2022-07-06T09:14:47;102612.78;;;20.12;46.25
69306;BME280;56427;51.580;4.656;2022-07-06T09:17:12;102612.25;;;20.54;46.35
69306;BME280;56427;51.580;4.656;2022-07-06T09:19:38;102612.09;;;20.74;45.63
69306;BME280;56427;51.580;4.656;2022-07-06T09:22:04;102613.47;;;20.78;45.44
69306;BME280;56427;51.580;4.656;2022-07-06T09:24:30;102613.34;;;21.50;44.00
69306;BME280;56427;51.580;4.656;2022-07-06T09:26:57;102620.69;;;22.15;43.55
69306;BME280;56427;51.580;4.656;2022-07-06T09:29:30;102617.78;;;21.49;43.73
69306;BME280;56427;51.580;4.656;2022-07-06T09:32:01;102620.66;;;21.64;44.46
69306;BME280;56427;51.580;4.656;2022-07-06T09:34:42;102617.28;;;21.28;44.74
69306;BME280;56427;51.580;4.656;2022-07-06T09:37:08;102619.63;;;21.57;43.25
69306;BME280;56427;51.580;4.656;2022-07-06T09:39:34;102619.84;;;20.75;45.71
69306;BME280;56427;51.580;4.656;2022-07-06T09:42:00;102616.78;;;20.80;46.11
69306;BME280;56427;51.580;4.656;2022-07-06T09:44:30;102627.22;;;21.08;45.43
69306;BME280;56427;51.580;4.656;2022-07-06T09:46:58;102630.00;;;21.50;45.19
69306;BME280;56427;51.580;4.656;2022-07-06T09:49:24;102630.53;;;21.36;44.61
69306;BME280;56427;51.580;4.656;2022-07-06T09:51:56;102626.16;;;22.22;44.32
69306;BME280;56427;51.580;4.656;2022-07-06T09:54:21;102629.53;;;21.90;44.14
69306;BME280;56427;51.580;4.656;2022-07-06T09:56:48;102639.53;;;22.12;42.97
69306;BME280;56427;51.580;4.656;2022-07-06T09:59:18;102641.63;;;22.43;42.54
69306;BME280;56427;51.580;4.656;2022-07-06T10:01:44;102642.69;;;22.16;42.45
69306;BME280;56427;51.580;4.656;2022-07-06T10:04:12;102645.78;;;21.68;44.11
69306;BME280;56427;51.580;4.656;2022-07-06T10:06:38;102647.28;;;21.45;44.71
69306;BME280;56427;51.580;4.656;2022-07-06T10:09:09;102643.97;;;21.69;44.40
69306;BME280;56427;51.580;4.656;2022-07-06T10:11:39;102645.41;;;22.32;44.03
69306;BME280;56427;51.580;4.656;2022-07-06T10:14:06;102642.28;;;22.37;41.63
69306;BME280;56427;51.580;4.656;2022-07-06T10:16:34;102638.81;;;22.02;42.92
69306;BME280;56427;51.580;4.656;2022-07-06T10:19:01;102638.31;;;21.38;42.80
69306;BME280;56427;51.580;4.656;2022-07-06T10:21:29;102640.00;;;21.65;43.38
69306;BME280;56427;51.580;4.656;2022-07-06T10:23:54;102636.84;;;21.96;42.52
69306;BME280;56427;51.580;4.656;2022-07-06T10:26:23;102632.97;;;21.47;42.82
69306;BME280;56427;51.580;4.656;2022-07-06T10:28:48;102639.03;;;22.17;43.38
69306;BME280;56427;51.580;4.656;2022-07-06T10:31:15;102632.72;;;22.85;39.86
69306;BME280;56427;51.580;4.656;2022-07-06T10:33:42;102629.91;;;22.70;40.02
69306;BME280;56427;51.580;4.656;2022-07-06T10:36:08;102628.25;;;22.61;41.37
69306;BME280;56427;51.580;4.656;2022-07-06T10:38:35;102625.13;;;23.07;40.61
69306;BME280;56427;51.580;4.656;2022-07-06T10:41:05;102629.59;;;21.63;40.82
69306;BME280;56427;51.580;4.656;2022-07-06T10:43:42;102624.63;;;22.95;39.94
69306;BME280;56427;51.580;4.656;2022-07-06T10:46:09;102627.78;;;23.15;39.26
69306;BME280;56427;51.580;4.656;2022-07-06T10:48:43;102624.47;;;23.21;38.52
69306;BME280;56427;51.580;4.656;2022-07-06T10:51:22;102615.75;;;24.31;36.58
69306;BME280;56427;51.580;4.656;2022-07-06T10:53:59;102617.09;;;23.56;37.22
69306;BME280;56427;51.580;4.656;2022-07-06T10:56:51;102621.72;;;23.62;38.03
69306;BME280;56427;51.580;4.656;2022-07-06T10:59:21;102613.00;;;23.93;37.47
69306;BME280;56427;51.580;4.656;2022-07-06T11:02:16;102624.59;;;24.93;37.34
69306;BME280;56427;51.580;4.656;2022-07-06T11:04:46;102610.22;;;24.18;37.55
69306;BME280;56427;51.580;4.656;2022-07-06T11:07:16;102614.16;;;23.91;38.97
69306;BME280;56427;51.580;4.656;2022-07-06T11:09:56;102612.22;;;24.85;38.03
69306;BME280;56427;51.580;4.656;2022-07-06T11:12:22;102618.66;;;25.06;37.52
69306;BME280;56427;51.580;4.656;2022-07-06T11:14:50;102619.66;;;25.05;36.87
69306;BME280;56427;51.580;4.656;2022-07-06T11:17:16;102612.03;;;22.39;40.94
69306;BME280;56427;51.580;4.656;2022-07-06T11:20:09;102613.50;;;22.34;42.89
69306;BME280;56427;51.580;4.656;2022-07-06T11:22:36;102604.44;;;22.77;43.00
69306;BME280;56427;51.580;4.656;2022-07-06T11:25:03;102604.63;;;22.00;41.71
69306;BME280;56427;51.580;4.656;2022-07-06T11:27:29;102598.72;;;21.72;42.12
69306;BME280;56427;51.580;4.656;2022-07-06T11:29:54;102599.97;;;20.81;45.89
69306;BME280;56427;51.580;4.656;2022-07-06T11:32:23;102596.00;;;22.49;43.66
69306;BME280;56427;51.580;4.656;2022-07-06T11:34:49;102595.19;;;23.62;42.26
69306;BME280;56427;51.580;4.656;2022-07-06T11:37:14;102593.97;;;23.73;38.96
69306;BME280;56427;51.580;4.656;2022-07-06T11:39:41;102590.53;;;22.92;38.26
69306;BME280;56427;51.580;4.656;2022-07-06T11:42:08;102579.34;;;23.94;39.34
69306;BME280;56427;51.580;4.656;2022-07-06T11:44:34;102576.69;;;23.94;39.56
69306;BME280;56427;51.580;4.656;2022-07-06T11:47:01;102573.59;;;23.42;39.50
69306;BME280;56427;51.580;4.656;2022-07-06T11:49:29;102575.22;;;23.43;39.53
69306;BME280;56427;51.580;4.656;2022-07-06T11:51:54;102570.94;;;23.82;38.64
69306;BME280;56427;51.580;4.656;2022-07-06T11:54:21;102566.22;;;23.61;39.02
69306;BME280;56427;51.580;4.656;2022-07-06T11:56:52;102559.50;;;24.13;37.60
69306;BME280;56427;51.580;4.656;2022-07-06T11:59:29;102560.66;;;23.87;40.36
69306;BME280;56427;51.580;4.656;2022-07-06T12:02:03;102555.38;;;24.94;38.87
69306;BME280;56427;51.580;4.656;2022-07-06T12:04:30;102554.13;;;24.44;39.26
69306;BME280;56427;51.580;4.656;2022-07-06T12:07:00;102557.00;;;24.11;39.79
69306;BME280;56427;51.580;4.656;2022-07-06T12:09:29;102550.19;;;25.31;37.13
69306;BME280;56427;51.580;4.656;2022-07-06T12:11:55;102550.03;;;24.79;38.15
69306;BME280;56427;51.580;4.656;2022-07-06T12:14:20;102552.84;;;24.17;37.83
69306;BME280;56427;51.580;4.656;2022-07-06T12:16:48;102553.75;;;25.08;37.55
69306;BME280;56427;51.580;4.656;2022-07-06T12:19:14;102551.44;;;25.20;36.25
69306;BME280;56427;51.580;4.656;2022-07-06T12:21:44;102544.94;;;25.08;36.16
69306;BME280;56427;51.580;4.656;2022-07-06T12:24:09;102551.44;;;25.20;36.85
69306;BME280;56427;51.580;4.656;2022-07-06T12:26:39;102555.63;;;23.61;37.68
69306;BME280;56427;51.580;4.656;2022-07-06T12:29:08;102554.59;;;23.22;40.57
69306;BME280;56427;51.580;4.656;2022-07-06T12:31:40;102549.50;;;22.30;41.81
69306;BME280;56427;51.580;4.656;2022-07-06T12:34:13;102557.78;;;23.09;41.87
69306;BME280;56427;51.580;4.656;2022-07-06T12:36:46;102546.66;;;23.62;40.46
69306;BME280;56427;51.580;4.656;2022-07-06T12:39:13;102537.97;;;24.31;40.27
69306;BME280;56427;51.580;4.656;2022-07-06T12:41:46;102539.34;;;24.03;40.05
69306;BME280;56427;51.580;4.656;2022-07-06T12:44:12;102539.53;;;24.02;40.14
69306;BME280;56427;51.580;4.656;2022-07-06T12:46:39;102543.22;;;24.16;40.77